Barry, Minnesota
Current Conditions -  °F | °C
As of 7:16 PM on Sunday 23 Nov 2014 (Local Time) from KETH Reporting Station
Overcast Overcast  
Wind Chill: 10°   Ceiling: 1900
Heat Index: 25°   Visibility: 10mi
Dew Point: 21°   Wind: 21mph
Humidity: 86%   Direction: 290°WNW
Pressure: 29.56"   Gusts: 26mph
Location:  45.56°N, 96.56°W
Report Text: KETH 240116Z AUTO 29018G23KT 10SM OVC019 M04/M06 A2956 RMK AO2
Loading
Personal Weather Stations






























Interactive Weather Map New forecast layout! Learn more

10-Day Weather Forecast

Advertisements
Track Severe Weather on mobile